Time;durP1;ratioP1;P1;durP2;ratioP2;P2;SDS_P1;SDS_P2;PMS_P1;PMS_P2;Temp;Humidity;BMP_temperature;BMP_pressure;BME280_temperature;BME280_humidity;BME280_pressure;Samples;Min_cycle;Max_cycle;Signal;HPM_P1;HPM_P2
2021/05/16 00:02:09;;;;;;;4.38;1.70;;;;;;;19.50;49.21;100009.66;5054005;28;20041;-63
2021/05/16 00:04:35;;;;;;;5.15;1.40;;;;;;;19.49;49.16;100008.00;5053137;28;20025;-64
2021/05/16 00:07:01;;;;;;;4.75;1.42;;;;;;;19.48;48.89;100011.59;5054050;28;20021;-63
2021/05/16 00:09:28;;;;;;;5.05;1.48;;;;;;;19.50;49.16;100014.09;5053669;28;20025;-63
2021/05/16 00:11:53;;;;;;;4.97;1.75;;;;;;;19.48;48.90;100022.19;5053198;28;20392;-63
2021/05/16 00:14:19;;;;;;;6.20;1.60;;;;;;;19.40;48.97;100009.72;5053591;28;20036;-63
2021/05/16 00:16:44;;;;;;;4.38;1.38;;;;;;;19.47;48.81;100009.97;5053893;28;20037;-63
2021/05/16 00:19:10;;;;;;;4.78;1.50;;;;;;;19.45;48.95;100011.09;5053234;28;20025;-63
2021/05/16 00:21:35;;;;;;;6.15;1.42;;;;;;;19.46;49.23;100013.59;5053610;28;20025;-65
2021/05/16 00:24:01;;;;;;;6.10;1.55;;;;;;;19.43;49.15;100005.13;5053832;28;20025;-63
2021/05/16 00:26:26;;;;;;;5.13;1.65;;;;;;;19.44;49.15;100012.06;5052732;28;20029;-63
2021/05/16 00:28:51;;;;;;;4.63;1.42;;;;;;;19.44;48.95;100018.19;5053746;28;20498;-62
2021/05/16 00:31:17;;;;;;;6.22;2.10;;;;;;;19.39;49.13;100010.72;5052915;28;20024;-63
2021/05/16 00:33:42;;;;;;;5.70;1.65;;;;;;;19.43;48.95;100015.72;5053783;28;20021;-63
2021/05/16 00:36:08;;;;;;;5.43;1.55;;;;;;;19.41;49.08;100013.22;5053526;28;20033;-63
2021/05/16 00:38:33;;;;;;;4.75;1.60;;;;;;;19.42;48.74;100016.69;5052372;28;20025;-63
2021/05/16 00:40:58;;;;;;;5.57;1.35;;;;;;;19.41;49.10;100015.88;5053306;28;20029;-63
2021/05/16 00:43:23;;;;;;;5.30;1.55;;;;;;;19.40;49.15;100015.00;5053035;28;20025;-63
2021/05/16 00:45:49;;;;;;;4.35;1.27;;;;;;;19.39;49.10;100025.72;5052577;28;20464;-64
2021/05/16 00:48:15;;;;;;;4.78;1.58;;;;;;;19.39;48.90;100021.28;5052781;28;20075;-63
2021/05/16 00:50:43;;;;;;;6.10;1.80;;;;;;;19.36;48.86;100012.84;5053368;28;20192;-63
2021/05/16 00:53:10;;;;;;;5.78;1.40;;;;;;;19.38;48.71;100016.97;5052697;28;20064;-63
2021/05/16 00:55:36;;;;;;;6.38;1.58;;;;;;;19.37;49.10;100017.13;5052595;28;20028;-64
2021/05/16 00:58:03;;;;;;;5.97;1.60;;;;;;;19.36;48.69;100013.69;5053422;28;20094;-63
2021/05/16 01:00:34;;;;;;;4.65;1.40;;;;;;;19.35;49.10;100008.53;5051831;28;20106;-63
2021/05/16 01:03:00;;;;;;;6.78;1.45;;;;;;;19.35;48.57;100012.00;5053155;28;20070;-64
2021/05/16 01:05:25;;;;;;;4.75;1.35;;;;;;;19.34;48.56;100010.38;5052802;28;20021;-63
2021/05/16 01:07:51;;;;;;;5.47;1.70;;;;;;;19.32;48.57;100006.19;5052163;28;20025;-64
2021/05/16 01:10:18;;;;;;;4.93;1.58;;;;;;;19.33;48.85;100011.34;5052497;28;20369;-63
2021/05/16 01:12:46;;;;;;;5.50;1.52;;;;;;;19.32;48.86;100009.66;5052763;28;20476;-63
2021/05/16 01:15:18;;;;;;;7.68;1.75;;;;;;;19.32;48.60;100014.13;5051998;28;20451;-63
2021/05/16 01:17:45;;;;;;;5.07;1.55;;;;;;;19.31;48.50;100012.47;5053140;28;20017;-64
2021/05/16 01:20:20;;;;;;;5.53;1.55;;;;;;;19.31;48.64;100012.47;5052800;28;20123;-66
2021/05/16 01:22:57;;;;;;;6.03;1.40;;;;;;;19.30;48.73;100006.34;5051859;28;20021;-62
2021/05/16 01:25:23;;;;;;;5.03;1.65;;;;;;;19.29;48.47;100009.97;5052480;28;20029;-63
2021/05/16 01:27:49;;;;;;;4.97;1.48;;;;;;;19.24;48.85;100001.69;5051842;28;20021;-63
2021/05/16 01:30:17;;;;;;;5.30;1.70;;;;;;;19.29;48.59;100009.16;5052376;28;20426;-63
2021/05/16 01:32:42;;;;;;;5.13;1.48;;;;;;;19.28;48.95;100010.13;5052451;28;20021;-63
2021/05/16 01:35:08;;;;;;;7.07;1.70;;;;;;;19.27;48.65;100009.31;5051532;28;20086;-63
2021/05/16 01:37:35;;;;;;;6.68;2.22;;;;;;;19.27;48.70;100011.13;5051961;28;20136;-63
2021/05/16 01:40:00;;;;;;;6.13;1.60;;;;;;;19.26;48.47;100017.38;5052559;28;20017;-62
2021/05/16 01:42:26;;;;;;;4.60;1.63;;;;;;;19.26;48.29;100015.56;5051306;28;20027;-63
2021/05/16 01:44:54;;;;;;;6.45;2.00;;;;;;;19.22;48.67;100006.28;5052412;28;20040;-67
2021/05/16 01:47:19;;;;;;;6.32;1.58;;;;;;;19.25;48.61;100013.91;5067081;28;20017;-63
2021/05/16 01:49:50;;;;;;;7.78;1.67;;;;;;;19.24;48.36;100019.34;5051547;28;20025;-64
2021/05/16 01:52:16;;;;;;;6.07;1.70;;;;;;;19.23;48.33;100018.50;5051827;28;20033;-63
2021/05/16 01:54:42;;;;;;;5.00;1.70;;;;;;;19.23;48.63;100010.56;5052244;28;20044;-63
2021/05/16 01:57:08;;;;;;;5.78;1.75;;;;;;;19.23;48.42;100020.31;5051511;28;20079;-64
2021/05/16 01:59:35;;;;;;;5.78;1.70;;;;;;;19.21;48.41;100021.28;5050606;28;20500;-64
2021/05/16 02:02:02;;;;;;;6.05;1.80;;;;;;;19.21;48.61;100018.66;5052075;28;20384;-63
2021/05/16 02:04:30;;;;;;;6.45;1.83;;;;;;;19.21;48.24;100018.66;5050860;28;20511;-62
2021/05/16 02:06:56;;;;;;;8.57;1.75;;;;;;;19.19;48.21;100012.69;5052133;28;20056;-63
2021/05/16 02:09:22;;;;;;;6.88;1.77;;;;;;;19.18;48.38;100016.34;5051732;28;20099;-63
2021/05/16 02:11:49;;;;;;;6.15;2.25;;;;;;;19.19;48.38;100017.16;5051427;28;20492;-63
2021/05/16 02:14:29;;;;;;;5.93;2.00;;;;;;;19.18;48.53;100013.69;5051540;28;20388;-64
2021/05/16 02:16:56;;;;;;;6.15;1.63;;;;;;;19.19;48.26;100009.22;5051107;28;20021;-62
2021/05/16 02:19:22;;;;;;;6.85;1.85;;;;;;;19.18;48.14;100011.06;5051706;28;20017;-63
2021/05/16 02:21:48;;;;;;;5.88;1.63;;;;;;;19.18;48.08;100005.78;5051949;28;20387;-63
2021/05/16 02:24:14;;;;;;;7.85;2.20;;;;;;;19.16;48.06;100006.91;5050653;28;20024;-63
2021/05/16 02:26:39;;;;;;;6.47;1.67;;;;;;;19.11;48.23;100004.72;5051819;28;20487;-63
2021/05/16 02:29:05;;;;;;;8.10;1.95;;;;;;;19.16;48.22;100006.91;5051737;28;20473;-63
2021/05/16 02:31:31;;;;;;;7.70;1.90;;;;;;;19.13;48.03;99997.44;5050723;28;20025;-63
2021/05/16 02:33:57;;;;;;;8.15;2.10;;;;;;;19.15;48.15;100006.06;5051668;28;20021;-64
2021/05/16 02:36:22;;;;;;;6.65;1.92;;;;;;;19.14;48.35;100004.41;5051449;28;20469;-62
2021/05/16 02:38:47;;;;;;;7.40;1.80;;;;;;;19.16;48.00;100006.91;5050985;28;20071;-64
2021/05/16 02:41:12;;;;;;;6.13;1.48;;;;;;;19.14;48.20;100003.59;5051384;28;20027;-63
2021/05/16 02:43:38;;;;;;;8.68;1.83;;;;;;;19.14;48.39;99998.31;5051540;28;20357;-63
2021/05/16 02:46:03;;;;;;;7.03;1.88;;;;;;;19.12;48.16;100006.38;5050764;28;20477;-62
2021/05/16 02:48:28;;;;;;;6.53;1.85;;;;;;;19.13;48.03;100008.03;5051409;28;20013;-63
2021/05/16 02:50:54;;;;;;;6.22;1.85;;;;;;;19.13;48.02;100015.94;5051779;28;20075;-63
2021/05/16 02:53:22;;;;;;;6.47;1.92;;;;;;;19.11;48.38;100009.16;5050659;28;20353;-62
2021/05/16 02:55:48;;;;;;;7.28;1.95;;;;;;;19.10;48.44;100000.41;5051276;28;20469;-64
2021/05/16 02:58:13;;;;;;;7.18;1.73;;;;;;;19.12;48.25;100013.44;5051306;28;20032;-64
2021/05/16 03:00:39;;;;;;;8.98;2.03;;;;;;;19.09;48.03;99998.75;5050442;28;20041;-64
2021/05/16 03:03:05;;;;;;;7.32;1.77;;;;;;;19.11;48.24;100012.63;5051526;28;20112;-64
2021/05/16 03:05:30;;;;;;;6.35;2.45;;;;;;;19.10;47.99;100016.25;5051344;28;20362;-64
2021/05/16 03:07:57;;;;;;;6.93;2.10;;;;;;;19.09;48.19;100014.59;5050810;28;20159;-62
2021/05/16 03:10:22;;;;;;;7.07;1.73;;;;;;;19.07;48.26;100011.25;5050248;28;20457;-63
2021/05/16 03:12:48;;;;;;;8.27;1.83;;;;;;;19.07;47.95;100015.72;5055054;28;20083;-63
2021/05/16 03:15:14;;;;;;;6.95;2.05;;;;;;;19.09;48.03;100013.75;5054319;28;20115;-63
2021/05/16 03:17:40;;;;;;;6.38;2.00;;;;;;;19.08;47.83;100010.28;5055242;28;20029;-63
2021/05/16 03:20:06;;;;;;;6.30;2.05;;;;;;;19.06;48.19;100014.06;5054349;28;20107;-64
2021/05/16 03:22:32;;;;;;;7.10;1.85;;;;;;;19.08;48.09;100017.38;5054487;28;20067;-62
2021/05/16 03:24:57;;;;;;;6.72;2.08;;;;;;;19.05;47.82;100007.94;5055127;28;20025;-62
2021/05/16 03:27:22;;;;;;;6.82;1.83;;;;;;;19.06;47.88;100014.91;5053770;28;20486;-62
2021/05/16 03:29:48;;;;;;;8.05;2.42;;;;;;;19.06;48.07;100021.97;5054650;28;20375;-63
2021/05/16 03:32:13;;;;;;;7.13;2.03;;;;;;;19.05;47.98;100018.50;5054748;28;20029;-63
2021/05/16 03:34:39;;;;;;;5.35;1.60;;;;;;;19.04;47.79;100022.13;5054135;28;20048;-63
2021/05/16 03:37:04;;;;;;;6.53;1.98;;;;;;;19.03;47.92;100015.19;5054752;28;20086;-64
2021/05/16 03:39:29;;;;;;;6.22;1.75;;;;;;;19.02;48.03;100014.34;5054499;28;20029;-63
2021/05/16 03:41:56;;;;;;;8.25;1.90;;;;;;;19.05;48.19;100022.97;5053881;28;20029;-64
2021/05/16 03:44:23;;;;;;;7.15;1.77;;;;;;;19.03;48.09;100021.31;5054281;28;20087;-67
2021/05/16 03:46:48;;;;;;;7.20;1.85;;;;;;;19.00;47.69;100015.50;5054626;28;20036;-63
2021/05/16 03:49:16;;;;;;;6.03;2.00;;;;;;;19.00;47.87;100013.69;5053558;28;20021;-63
2021/05/16 03:51:41;;;;;;;7.60;2.15;;;;;;;19.01;48.11;100017.16;5054520;28;20120;-63
2021/05/16 03:54:07;;;;;;;6.95;2.00;;;;;;;19.00;47.65;100020.78;5054216;28;20040;-62
2021/05/16 03:56:32;;;;;;;9.45;2.90;;;;;;;19.02;47.94;100024.09;5053227;28;20073;-63
2021/05/16 03:58:57;;;;;;;5.30;1.75;;;;;;;18.97;47.85;100018.44;5054109;28;20051;-63
2021/05/16 04:01:23;;;;;;;7.20;2.08;;;;;;;18.96;47.97;100014.97;5054035;28;20021;-63
2021/05/16 04:03:48;;;;;;;8.95;2.40;;;;;;;19.01;47.61;100030.38;5053606;28;20029;-62
2021/05/16 04:06:13;;;;;;;7.45;1.98;;;;;;;18.99;47.70;100027.88;5053870;28;20033;-64
2021/05/16 04:08:38;;;;;;;9.10;2.17;;;;;;;18.99;47.98;100029.66;5054045;28;20071;-64
2021/05/16 04:11:04;;;;;;;7.35;1.85;;;;;;;18.99;47.61;100032.31;5053339;28;20032;-63
2021/05/16 04:13:29;;;;;;;6.78;2.45;;;;;;;18.98;47.99;100025.38;5053564;28;20041;-62
2021/05/16 04:15:54;;;;;;;9.80;2.35;;;;;;;18.97;47.67;100032.47;5053923;28;20414;-63
2021/05/16 04:18:20;;;;;;;7.40;2.30;;;;;;;18.98;47.94;100041.22;5052927;28;20025;-62
2021/05/16 04:20:45;;;;;;;8.38;2.00;;;;;;;18.95;47.77;100030.97;5053837;28;20032;-63
2021/05/16 04:23:10;;;;;;;7.72;1.80;;;;;;;18.96;47.73;100036.09;5052928;28;20029;-63
2021/05/16 04:25:36;;;;;;;7.25;1.88;;;;;;;18.96;47.54;100043.16;5052731;28;20074;-63
2021/05/16 04:28:01;;;;;;;7.37;2.50;;;;;;;18.96;47.88;100040.53;5053598;28;20106;-63
2021/05/16 04:30:26;;;;;;;8.70;2.28;;;;;;;18.96;47.62;100036.09;5052612;28;20749;-63
2021/05/16 04:32:52;;;;;;;6.43;2.33;;;;;;;18.95;47.85;100034.44;5053524;28;20392;-62
2021/05/16 04:35:17;;;;;;;6.90;2.33;;;;;;;18.94;47.73;100035.41;5053155;28;20056;-63
2021/05/16 04:37:43;;;;;;;8.75;2.20;;;;;;;18.87;47.24;100015.88;5052763;28;20036;-63
2021/05/16 04:40:09;;;;;;;8.10;1.88;;;;;;;18.95;47.56;100033.59;5053414;28;20032;-63
2021/05/16 04:42:34;;;;;;;7.28;1.90;;;;;;;18.94;47.69;100032.75;5053245;28;20380;-63
2021/05/16 04:45:00;;;;;;;8.05;2.20;;;;;;;18.93;47.09;100036.41;5052422;28;20052;-62
2021/05/16 04:47:26;;;;;;;7.70;2.15;;;;;;;18.94;47.60;100035.41;5052924;28;20032;-62
2021/05/16 04:49:51;;;;;;;5.25;1.80;;;;;;;18.93;47.67;100036.41;5053267;28;20049;-62
2021/05/16 04:52:17;;;;;;;8.70;2.40;;;;;;;18.94;47.58;100045.13;5052245;28;20087;-63
2021/05/16 04:54:42;;;;;;;9.50;2.30;;;;;;;18.93;47.65;100036.41;5053134;28;20435;-63
2021/05/16 04:57:07;;;;;;;6.80;1.90;;;;;;;18.91;47.21;100037.50;5053155;28;20059;-63
2021/05/16 04:59:33;;;;;;;6.32;1.73;;;;;;;18.93;47.24;100043.47;5051694;28;20045;-63
2021/05/16 05:01:58;;;;;;;7.15;1.92;;;;;;;18.91;47.69;100037.50;5053299;28;20057;-63
2021/05/16 05:04:24;;;;;;;8.07;2.70;;;;;;;18.92;47.40;100047.09;5052696;28;20079;-64
2021/05/16 05:06:49;;;;;;;7.53;2.20;;;;;;;18.90;47.21;100043.75;5052333;28;20102;-62
2021/05/16 05:09:14;;;;;;;7.38;2.25;;;;;;;18.92;47.12;100047.09;5052742;28;20095;-63
2021/05/16 05:11:39;;;;;;;7.95;2.33;;;;;;;18.92;47.03;100053.22;5052803;28;20025;-63
2021/05/16 05:14:05;;;;;;;7.68;2.10;;;;;;;18.91;47.17;100040.16;5051942;28;20024;-63
2021/05/16 05:16:30;;;;;;;8.20;2.25;;;;;;;18.84;47.37;100043.38;5052562;28;20029;-63
2021/05/16 05:18:55;;;;;;;7.90;2.10;;;;;;;18.89;47.27;100047.41;5052698;28;20107;-62
2021/05/16 05:21:21;;;;;;;7.20;2.25;;;;;;;18.89;47.71;100040.31;5051353;28;20468;-63
2021/05/16 05:23:46;;;;;;;8.23;2.15;;;;;;;18.90;47.47;100051.69;5052740;28;20124;-62
2021/05/16 05:26:11;;;;;;;7.55;2.20;;;;;;;18.94;47.59;100045.97;5052702;28;20040;-63
2021/05/16 05:28:37;;;;;;;5.00;1.58;;;;;;;18.96;47.44;100037.88;5051337;28;20028;-63
2021/05/16 05:31:03;;;;;;;6.75;1.90;;;;;;;19.01;47.66;100048.84;5052593;28;20043;-63
2021/05/16 05:33:29;;;;;;;7.30;2.03;;;;;;;19.06;47.43;100051.88;5052130;28;20025;-63
2021/05/16 05:35:54;;;;;;;8.20;1.92;;;;;;;19.09;47.55;100050.72;5051691;28;20037;-63
2021/05/16 05:38:20;;;;;;;6.72;1.85;;;;;;;19.12;47.47;100055.72;5051943;28;20496;-63
2021/05/16 05:40:46;;;;;;;6.68;2.03;;;;;;;19.14;47.63;100051.94;5051554;28;20025;-63
2021/05/16 05:43:11;;;;;;;5.90;1.60;;;;;;;19.17;47.58;100056.94;5052096;28;20035;-62
2021/05/16 05:45:37;;;;;;;7.30;2.05;;;;;;;19.20;47.71;100053.13;5052714;28;20028;-63
2021/05/16 05:48:03;;;;;;;7.85;1.85;;;;;;;19.21;47.56;100058.28;5051528;28;20469;-63
2021/05/16 05:50:28;;;;;;;7.85;1.85;;;;;;;19.28;47.49;100057.66;5051821;28;20041;-63
2021/05/16 05:52:54;;;;;;;6.88;1.90;;;;;;;19.31;47.07;100058.22;5052293;28;20021;-63
2021/05/16 05:55:19;;;;;;;6.18;1.80;;;;;;;19.32;46.95;100059.03;5051175;28;20075;-63
2021/05/16 05:57:45;;;;;;;7.45;2.10;;;;;;;19.37;46.97;100060.22;5052055;28;20025;-63
2021/05/16 06:00:11;;;;;;;7.30;1.92;;;;;;;19.39;47.04;100062.72;5052067;28;20102;-63
2021/05/16 06:02:36;;;;;;;9.50;2.38;;;;;;;19.41;46.91;100066.06;5050859;28;20028;-63
2021/05/16 06:05:03;;;;;;;8.55;2.50;;;;;;;19.42;46.53;100066.88;5051997;28;20033;-63
2021/05/16 06:07:28;;;;;;;7.28;1.80;;;;;;;19.43;46.52;100074.66;5051485;28;20471;-64
2021/05/16 06:09:53;;;;;;;6.65;2.10;;;;;;;19.45;46.46;100071.88;5051180;28;20021;-63
2021/05/16 06:12:19;;;;;;;7.43;1.75;;;;;;;19.44;46.59;100068.41;5051504;28;20033;-63
2021/05/16 06:14:47;;;;;;;7.40;2.15;;;;;;;19.48;46.37;100075.03;5052029;28;20048;-63
2021/05/16 06:17:12;;;;;;;6.90;1.80;;;;;;;19.52;46.38;100070.28;5050939;28;20063;-63
2021/05/16 06:19:38;;;;;;;5.80;1.60;;;;;;;19.53;46.19;100067.47;5051725;28;20041;-62
2021/05/16 06:22:03;;;;;;;6.47;1.65;;;;;;;19.60;46.52;100070.34;5051661;28;20464;-63
2021/05/16 06:24:29;;;;;;;6.95;2.00;;;;;;;19.61;46.09;100065.88;5050578;28;20021;-63
2021/05/16 06:27:00;;;;;;;6.53;1.80;;;;;;;19.69;46.31;100077.38;5051760;28;20103;-63
2021/05/16 06:29:28;;;;;;;7.05;1.90;;;;;;;19.71;46.12;100078.03;5051743;28;20024;-63
2021/05/16 06:31:53;;;;;;;9.07;2.28;;;;;;;19.72;46.54;100073.56;5050911;28;20445;-63
2021/05/16 06:34:19;;;;;;;6.45;1.70;;;;;;;19.71;46.22;100075.41;5051377;28;20025;-64
2021/05/16 06:36:44;;;;;;;6.13;2.20;;;;;;;19.73;46.40;100086.63;5051876;28;20025;-63
2021/05/16 06:39:10;;;;;;;9.20;1.90;;;;;;;19.73;46.23;100081.34;5051347;28;20021;-62
2021/05/16 06:41:35;;;;;;;8.35;2.10;;;;;;;19.72;46.47;100079.69;5051240;28;20356;-64
2021/05/16 06:44:01;;;;;;;6.15;1.90;;;;;;;19.71;46.35;100082.47;5051374;28;20049;-63
2021/05/16 06:46:27;;;;;;;7.07;1.90;;;;;;;19.68;46.79;100074.88;5052421;28;20049;-71
2021/05/16 06:48:55;;;;;;;6.07;1.80;;;;;;;19.69;46.77;100081.81;5055599;28;20029;-62
2021/05/16 06:51:21;;;;;;;6.82;1.85;;;;;;;19.70;46.55;100086.13;5054522;28;20495;-62
2021/05/16 06:53:46;;;;;;;6.97;2.05;;;;;;;19.69;46.91;100082.66;5056753;28;20048;-63
2021/05/16 06:56:13;;;;;;;6.85;1.90;;;;;;;19.73;46.94;100085.81;5055899;28;20025;-62
2021/05/16 06:58:39;;;;;;;6.35;2.17;;;;;;;19.75;47.10;100091.78;5054912;28;20033;-64
2021/05/16 07:01:04;;;;;;;6.93;1.95;;;;;;;19.73;46.87;100088.47;5055830;28;20031;-63
2021/05/16 07:03:30;;;;;;;10.25;2.10;;;;;;;19.77;46.86;100092.47;5055616;28;20052;-63
2021/05/16 07:05:55;;;;;;;7.78;2.17;;;;;;;19.76;47.14;100090.84;5054770;28;20049;-63
2021/05/16 07:08:21;;;;;;;7.13;1.95;;;;;;;19.78;46.94;100096.78;5055609;28;20025;-64
2021/05/16 07:10:46;;;;;;;7.68;1.80;;;;;;;19.78;46.91;100096.78;5055726;28;20096;-63
2021/05/16 07:13:12;;;;;;;5.88;1.55;;;;;;;19.78;47.02;100088.84;5055612;28;20033;-64
2021/05/16 07:15:37;;;;;;;8.77;2.80;;;;;;;19.79;47.32;100095.81;5054650;28;20131;-65
2021/05/16 07:18:02;;;;;;;7.32;1.90;;;;;;;19.77;47.10;100089.00;5056721;28;20033;-64
2021/05/16 07:20:27;;;;;;;8.57;2.20;;;;;;;19.77;47.14;100099.59;5055667;28;20523;-64
2021/05/16 07:22:53;;;;;;;6.78;1.92;;;;;;;19.76;46.89;100088.19;5055858;28;20099;-65
2021/05/16 07:25:18;;;;;;;5.53;1.50;;;;;;;19.75;47.22;100097.06;5055954;28;20480;-66
2021/05/16 07:27:44;;;;;;;6.18;1.90;;;;;;;19.75;46.82;100095.25;5055886;28;20033;-66
2021/05/16 07:30:13;;;;;;;6.90;1.80;;;;;;;19.74;46.74;100101.53;5055317;28;20032;-62
2021/05/16 07:32:38;;;;;;;9.38;1.83;;;;;;;19.75;46.77;100105.81;5054694;28;20033;-62
2021/05/16 07:35:05;;;;;;;5.38;1.88;;;;;;;19.72;47.01;100100.81;5053969;28;20028;-62
2021/05/16 07:37:30;;;;;;;7.03;1.80;;;;;;;19.74;47.16;100104.16;5055559;28;20029;-65
2021/05/16 07:39:57;;;;;;;7.50;1.85;;;;;;;19.77;46.87;100102.22;5056039;28;20094;-66
2021/05/16 07:42:22;;;;;;;9.20;1.90;;;;;;;19.75;46.95;100095.25;5054067;28;20472;-64
2021/05/16 07:44:48;;;;;;;6.07;1.55;;;;;;;19.77;47.09;100097.75;5055082;28;20116;-66
2021/05/16 07:47:13;;;;;;;6.45;1.77;;;;;;;19.74;47.42;100098.03;5054755;28;20039;-65
2021/05/16 07:49:38;;;;;;;6.65;1.80;;;;;;;19.72;47.19;100089.44;5054041;28;20388;-65
2021/05/16 07:52:04;;;;;;;6.75;1.73;;;;;;;19.71;47.21;100096.53;5054443;28;20392;-66
2021/05/16 07:54:30;;;;;;;6.85;1.88;;;;;;;19.73;47.29;100101.69;5053982;28;20025;-65
2021/05/16 07:56:57;;;;;;;7.38;1.83;;;;;;;19.70;47.42;100101.97;5054008;28;20477;-64
2021/05/16 07:59:23;;;;;;;7.15;1.90;;;;;;;19.68;47.26;100098.66;5053499;28;20055;-64
2021/05/16 08:01:48;;;;;;;7.57;1.77;;;;;;;19.69;47.60;100097.66;5053930;28;20037;-67
2021/05/16 08:04:13;;;;;;;5.55;1.85;;;;;;;19.69;47.27;100092.38;5054045;28;20368;-68
2021/05/16 08:06:38;;;;;;;6.85;2.13;;;;;;;19.65;47.40;100101.63;5054653;28;20040;-65
2021/05/16 08:09:04;;;;;;;5.53;1.95;;;;;;;19.65;47.77;100105.09;5053553;28;20017;-65
2021/05/16 08:11:29;;;;;;;6.28;1.77;;;;;;;19.65;47.42;100112.19;5053762;28;20032;-66
2021/05/16 08:13:55;;;;;;;5.47;1.75;;;;;;;19.60;47.36;100095.94;5054267;28;20028;-68
2021/05/16 08:16:20;;;;;;;5.97;1.58;;;;;;;19.62;47.55;100105.38;5053127;28;20025;-65
2021/05/16 08:18:47;;;;;;;5.95;1.65;;;;;;;19.60;47.33;100091.50;5054002;28;20053;-65
2021/05/16 08:21:13;;;;;;;7.53;1.80;;;;;;;19.61;47.20;100094.97;5053480;28;20107;-65
2021/05/16 08:23:39;;;;;;;6.22;1.63;;;;;;;19.58;47.50;100099.56;5052807;28;20155;-65
2021/05/16 08:26:07;;;;;;;6.85;2.03;;;;;;;19.52;47.42;100092.25;5053796;28;20021;-65
2021/05/16 08:28:32;;;;;;;6.00;2.05;;;;;;;19.53;47.25;100093.91;5053255;28;20166;-65
2021/05/16 08:30:57;;;;;;;5.45;1.65;;;;;;;19.49;46.98;100087.28;5052922;28;20025;-64
2021/05/16 08:33:23;;;;;;;9.77;1.63;;;;;;;19.48;47.03;100098.81;5053234;28;20055;-64
2021/05/16 08:35:48;;;;;;;6.32;1.55;;;;;;;19.45;47.05;100095.66;5053318;28;20037;-64
2021/05/16 08:38:14;;;;;;;8.25;1.80;;;;;;;19.43;47.20;100093.16;5052131;28;20064;-65
2021/05/16 08:40:39;;;;;;;7.20;1.92;;;;;;;19.43;47.16;100092.34;5053597;28;20035;-64
2021/05/16 08:43:05;;;;;;;6.80;1.70;;;;;;;19.42;47.26;100096.78;5053359;28;20056;-65
2021/05/16 08:45:31;;;;;;;7.40;1.98;;;;;;;19.40;47.21;100086.34;5052195;28;20129;-64
2021/05/16 08:47:58;;;;;;;7.80;1.73;;;;;;;19.40;47.29;100090.81;5053286;28;20021;-65
2021/05/16 08:50:24;;;;;;;8.98;2.25;;;;;;;19.36;47.05;100085.00;5052817;28;20431;-65
2021/05/16 08:52:49;;;;;;;6.82;1.90;;;;;;;19.32;46.87;100075.72;5052287;28;20028;-66
2021/05/16 08:55:16;;;;;;;6.85;1.73;;;;;;;19.39;47.05;100083.84;5052637;28;20025;-64
2021/05/16 08:57:42;;;;;;;5.50;1.50;;;;;;;19.37;47.14;100083.19;5052886;28;20051;-64
2021/05/16 09:00:08;;;;;;;6.10;1.75;;;;;;;19.37;47.21;100081.38;5052737;28;20408;-65
2021/05/16 09:02:33;;;;;;;6.07;1.92;;;;;;;19.41;47.09;100081.91;5052601;28;20045;-65
2021/05/16 09:04:59;;;;;;;4.75;1.52;;;;;;;19.38;46.83;100082.22;5052304;28;20036;-65
2021/05/16 09:07:29;;;;;;;6.15;1.50;;;;;;;19.35;46.71;100067.50;5052511;28;20021;-65
2021/05/16 09:09:54;;;;;;;7.18;1.90;;;;;;;19.37;46.95;100075.25;5052795;28;20017;-65
2021/05/16 09:12:22;;;;;;;6.38;1.60;;;;;;;19.35;47.12;100077.22;5051960;28;20518;-65
2021/05/16 09:14:51;;;;;;;5.90;1.52;;;;;;;19.34;46.81;100086.13;5052903;28;20025;-65
2021/05/16 09:17:35;;;;;;;5.88;1.63;;;;;;;19.31;46.81;100079.34;5052599;28;20140;-65
2021/05/16 09:20:08;;;;;;;6.65;1.80;;;;;;;19.34;47.28;100081.69;5052406;28;20028;-64
2021/05/16 09:22:40;;;;;;;7.75;2.25;;;;;;;19.40;47.02;100077.59;5052557;28;20041;-64
2021/05/16 09:25:11;;;;;;;5.53;1.63;;;;;;;19.41;47.28;100076.63;5052774;28;20107;-64
2021/05/16 09:27:37;;;;;;;5.55;1.77;;;;;;;19.45;46.80;100066.59;5051519;28;20167;-65
2021/05/16 09:30:15;;;;;;;7.57;1.80;;;;;;;19.47;46.83;100081.31;5052500;28;20082;-64
2021/05/16 09:32:47;;;;;;;8.38;2.10;;;;;;;19.48;46.97;100074.22;5052655;28;20021;-65
2021/05/16 09:35:13;;;;;;;7.75;2.17;;;;;;;19.51;47.12;100079.19;5051577;28;20040;-65
2021/05/16 09:37:55;;;;;;;5.13;1.73;;;;;;;19.52;47.14;100075.56;5052533;28;20025;-65
2021/05/16 09:40:26;;;;;;;6.18;1.55;;;;;;;19.48;47.06;100072.38;5051396;28;20021;-64
2021/05/16 09:43:19;;;;;;;8.18;2.05;;;;;;;19.52;46.82;100079.03;5052595;28;20082;-64
2021/05/16 09:45:55;;;;;;;5.53;1.55;;;;;;;19.55;46.94;100073.44;5052623;28;20094;-64
2021/05/16 09:48:28;;;;;;;7.07;1.77;;;;;;;19.55;47.05;100065.53;5051309;28;20020;-64
2021/05/16 09:51:17;;;;;;;4.57;1.42;;;;;;;19.55;46.85;100067.31;5052312;28;20476;-65
2021/05/16 09:53:47;;;;;;;6.28;1.65;;;;;;;19.56;46.85;100066.34;5052352;28;20112;-65
2021/05/16 09:56:18;;;;;;;6.63;1.80;;;;;;;19.57;46.66;100065.38;5051358;28;20024;-66
2021/05/16 09:58:44;;;;;;;7.38;2.00;;;;;;;19.57;46.94;100065.38;5052095;28;20025;-64
2021/05/16 10:01:09;;;;;;;6.07;1.50;;;;;;;19.58;46.54;100061.72;5051279;28;20099;-63
2021/05/16 10:03:36;;;;;;;5.40;1.40;;;;;;;19.59;46.77;100060.75;5051629;28;20052;-65
2021/05/16 10:06:02;;;;;;;6.25;1.48;;;;;;;19.58;46.66;100048.50;5052289;28;20112;-64
2021/05/16 10:08:29;;;;;;;8.57;1.92;;;;;;;19.61;46.96;100044.75;5051091;28;20532;-65
2021/05/16 10:10:56;;;;;;;3.72;1.40;;;;;;;19.61;46.61;100047.38;5052017;28;20346;-65
2021/05/16 10:13:22;;;;;;;6.43;1.65;;;;;;;19.61;46.81;100042.09;5051641;28;20070;-64
2021/05/16 10:15:49;;;;;;;5.18;1.52;;;;;;;19.61;46.56;100040.28;5050930;28;20064;-64
2021/05/16 10:18:16;;;;;;;5.78;1.80;;;;;;;19.60;46.89;100043.91;5051361;28;20533;-64
2021/05/16 10:20:43;;;;;;;6.70;1.58;;;;;;;19.63;46.54;100038.34;5050460;28;20503;-65
2021/05/16 10:23:10;;;;;;;4.97;1.48;;;;;;;19.60;46.61;100024.56;5050938;28;20028;-65
2021/05/16 10:25:46;;;;;;;4.53;1.33;;;;;;;19.61;46.90;100019.13;5051658;28;20103;-65
2021/05/16 10:28:16;;;;;;;5.82;1.50;;;;;;;19.57;46.90;100008.03;5051811;28;20017;-64
2021/05/16 10:31:10;;;;;;;4.40;1.23;;;;;;;19.60;46.65;100019.28;5051118;28;20023;-65
2021/05/16 10:33:39;;;;;;;6.50;1.60;;;;;;;19.64;46.66;100010.06;5044393;28;20060;-65
2021/05/16 10:36:04;;;;;;;4.07;1.40;;;;;;;19.61;46.71;100003.28;5051720;28;20029;-65
2021/05/16 10:38:34;;;;;;;4.57;1.48;;;;;;;19.65;46.63;99995.88;5050621;28;20087;-68
2021/05/16 10:41:18;;;;;;;5.05;1.52;;;;;;;19.61;46.81;100007.75;5051695;28;20029;-65
2021/05/16 10:43:44;;;;;;;6.00;1.60;;;;;;;19.56;46.82;99993.16;5051034;28;20108;-65
2021/05/16 10:46:37;;;;;;;5.93;1.40;;;;;;;19.59;46.85;99992.03;5051721;28;20074;-66
2021/05/16 10:49:18;;;;;;;5.72;1.70;;;;;;;19.58;46.82;99988.56;5051559;28;20488;-64
2021/05/16 10:51:44;;;;;;;5.25;1.40;;;;;;;19.55;46.93;99990.69;5051270;28;20043;-65
2021/05/16 10:54:32;;;;;;;6.53;1.60;;;;;;;19.58;46.72;99996.50;5051500;28;20215;-66
2021/05/16 10:57:23;;;;;;;5.60;1.48;;;;;;;19.53;46.56;99990.81;5051559;28;20061;-66
2021/05/16 10:59:51;;;;;;;5.07;1.42;;;;;;;19.54;46.40;99992.50;5051220;28;20049;-66
2021/05/16 11:02:54;;;;;;;4.07;1.30;;;;;;;19.52;46.53;99983.91;5051431;28;20021;-65
2021/05/16 11:05:50;;;;;;;7.32;1.50;;;;;;;19.55;46.39;99988.88;5051269;28;20032;-65
2021/05/16 11:08:15;;;;;;;7.18;1.45;;;;;;;19.54;46.29;99991.69;5051240;28;20048;-66
2021/05/16 11:10:42;;;;;;;5.32;2.00;;;;;;;19.55;46.57;99983.59;5053322;28;20029;-65
2021/05/16 11:13:19;;;;;;;4.47;1.30;;;;;;;19.58;46.51;99980.66;5051432;28;20326;-65
2021/05/16 11:15:55;;;;;;;3.72;1.20;;;;;;;19.60;46.43;99977.84;5052031;28;20135;-66
2021/05/16 11:18:24;;;;;;;5.38;1.38;;;;;;;19.61;46.43;99971.56;5051741;28;20036;-66
2021/05/16 11:20:55;;;;;;;6.05;1.40;;;;;;;19.62;46.13;99981.16;5051970;28;20469;-65
2021/05/16 11:23:28;;;;;;;4.32;1.20;;;;;;;19.61;46.13;99966.28;5052350;28;20025;-68
2021/05/16 11:25:54;;;;;;;5.63;1.83;;;;;;;19.63;46.10;99976.69;5051942;28;20025;-64
2021/05/16 11:28:27;;;;;;;6.10;1.80;;;;;;;19.60;46.11;99979.63;5052120;28;20369;-66